sensor_id;sensor_type;location;lat;lon;timestamp;pressure;altitude;pressure_sealevel;temperature;humidity
73267;BME280;61495;53.400;7.608;2022-12-10T00:00:52;100824.06;;;-1.04;89.49
73267;BME280;61495;53.400;7.608;2022-12-10T00:03:17;100827.41;;;-1.02;89.37
73267;BME280;61495;53.400;7.608;2022-12-10T00:05:42;100831.97;;;-1.04;89.38
73267;BME280;61495;53.400;7.608;2022-12-10T00:08:08;100829.44;;;-1.06;89.33
73267;BME280;61495;53.400;7.608;2022-12-10T00:10:33;100840.94;;;-1.07;89.11
73267;BME280;61495;53.400;7.608;2022-12-10T00:12:58;100834.72;;;-1.06;89.46
73267;BME280;61495;53.400;7.608;2022-12-10T00:15:24;100834.97;;;-1.09;89.43
73267;BME280;61495;53.400;7.608;2022-12-10T00:17:49;100839.53;;;-1.11;88.94
73267;BME280;61495;53.400;7.608;2022-12-10T00:20:14;100836.91;;;-1.11;89.53
73267;BME280;61495;53.400;7.608;2022-12-10T00:22:40;100840.50;;;-1.12;89.16
73267;BME280;61495;53.400;7.608;2022-12-10T00:25:05;100839.81;;;-1.14;88.99
73267;BME280;61495;53.400;7.608;2022-12-10T00:27:31;100830.38;;;-1.17;89.12
73267;BME280;61495;53.400;7.608;2022-12-10T00:29:56;100834.66;;;-1.16;89.32
73267;BME280;61495;53.400;7.608;2022-12-10T00:32:21;100837.69;;;-1.20;89.19
73267;BME280;61495;53.400;7.608;2022-12-10T00:34:47;100839.38;;;-1.19;89.07
73267;BME280;61495;53.400;7.608;2022-12-10T00:37:12;100832.56;;;-1.22;89.43
73267;BME280;61495;53.400;7.608;2022-12-10T00:39:38;100842.94;;;-1.20;89.17
73267;BME280;61495;53.400;7.608;2022-12-10T00:42:03;100841.28;;;-1.21;89.34
73267;BME280;61495;53.400;7.608;2022-12-10T00:44:28;100838.66;;;-1.21;89.08
73267;BME280;61495;53.400;7.608;2022-12-10T00:46:54;100839.50;;;-1.21;89.40
73267;BME280;61495;53.400;7.608;2022-12-10T00:49:19;100838.78;;;-1.23;89.06
73267;BME280;61495;53.400;7.608;2022-12-10T00:51:48;100840.31;;;-1.20;89.43
73267;BME280;61495;53.400;7.608;2022-12-10T00:54:13;100842.94;;;-1.20;89.31
73267;BME280;61495;53.400;7.608;2022-12-10T00:56:38;100837.28;;;-1.25;89.12
73267;BME280;61495;53.400;7.608;2022-12-10T00:59:04;100843.22;;;-1.23;89.15
73267;BME280;61495;53.400;7.608;2022-12-10T01:01:33;100842.53;;;-1.25;89.15
73267;BME280;61495;53.400;7.608;2022-12-10T01:04:01;100843.75;;;-1.29;89.35
73267;BME280;61495;53.400;7.608;2022-12-10T01:06:33;100853.72;;;-1.23;89.44
73267;BME280;61495;53.400;7.608;2022-12-10T01:09:01;100859.25;;;-1.26;89.18
73267;BME280;61495;53.400;7.608;2022-12-10T01:11:33;100843.75;;;-1.29;89.18
73267;BME280;61495;53.400;7.608;2022-12-10T01:13:59;100848.72;;;-1.26;89.20
73267;BME280;61495;53.400;7.608;2022-12-10T01:16:25;100863.91;;;-1.30;89.01
73267;BME280;61495;53.400;7.608;2022-12-10T01:18:55;100854.25;;;-1.29;89.31
73267;BME280;61495;53.400;7.608;2022-12-10T01:21:22;100852.56;;;-1.30;89.25
73267;BME280;61495;53.400;7.608;2022-12-10T01:23:48;100867.53;;;-1.31;89.13
73267;BME280;61495;53.400;7.608;2022-12-10T01:26:19;100861.44;;;-1.31;89.31
73267;BME280;61495;53.400;7.608;2022-12-10T01:28:46;100859.75;;;-1.32;89.25
73267;BME280;61495;53.400;7.608;2022-12-10T01:31:14;100859.75;;;-1.32;89.36
73267;BME280;61495;53.400;7.608;2022-12-10T01:33:40;100859.75;;;-1.32;89.29
73267;BME280;61495;53.400;7.608;2022-12-10T01:36:10;100860.44;;;-1.30;89.40
73267;BME280;61495;53.400;7.608;2022-12-10T01:38:37;100857.81;;;-1.30;89.29
73267;BME280;61495;53.400;7.608;2022-12-10T01:41:03;100859.75;;;-1.32;89.61
73267;BME280;61495;53.400;7.608;2022-12-10T01:43:49;100865.03;;;-1.32;89.40
73267;BME280;61495;53.400;7.608;2022-12-10T01:46:15;100865.16;;;-1.34;89.35
73267;BME280;61495;53.400;7.608;2022-12-10T01:48:41;100866.94;;;-1.34;89.32
73267;BME280;61495;53.400;7.608;2022-12-10T01:51:06;100873.03;;;-1.34;89.25
73267;BME280;61495;53.400;7.608;2022-12-10T01:53:31;100865.53;;;-1.38;89.10
73267;BME280;61495;53.400;7.608;2022-12-10T01:55:57;100881.03;;;-1.35;89.52
73267;BME280;61495;53.400;7.608;2022-12-10T01:58:22;100873.41;;;-1.38;89.13
73267;BME280;61495;53.400;7.608;2022-12-10T02:08:58;100875.22;;;-1.39;89.46
73267;BME280;61495;53.400;7.608;2022-12-10T02:11:46;100867.59;;;-1.42;89.46
73267;BME280;61495;53.400;7.608;2022-12-10T02:16:56;100868.56;;;-1.43;89.19
73267;BME280;61495;53.400;7.608;2022-12-10T02:20:00;100869.38;;;-1.42;89.28
73267;BME280;61495;53.400;7.608;2022-12-10T02:22:31;100864.97;;;-1.42;89.22
73267;BME280;61495;53.400;7.608;2022-12-10T02:24:58;100870.22;;;-1.42;89.06
73267;BME280;61495;53.400;7.608;2022-12-10T02:27:28;100866.06;;;-1.44;89.58
73267;BME280;61495;53.400;7.608;2022-12-10T02:29:57;100868.94;;;-1.47;89.23
73267;BME280;61495;53.400;7.608;2022-12-10T02:32:26;100866.31;;;-1.47;89.43
73267;BME280;61495;53.400;7.608;2022-12-10T02:34:57;100862.16;;;-1.50;89.10
73267;BME280;61495;53.400;7.608;2022-12-10T02:37:31;100866.56;;;-1.50;89.17
73267;BME280;61495;53.400;7.608;2022-12-10T02:40:02;100875.13;;;-1.48;89.33
73267;BME280;61495;53.400;7.608;2022-12-10T02:42:30;100874.44;;;-1.50;89.17
73267;BME280;61495;53.400;7.608;2022-12-10T02:44:59;100864.88;;;-1.51;89.50
73267;BME280;61495;53.400;7.608;2022-12-10T02:47:25;100868.50;;;-1.52;89.18
73267;BME280;61495;53.400;7.608;2022-12-10T02:49:53;100869.34;;;-1.52;89.20
73267;BME280;61495;53.400;7.608;2022-12-10T02:52:23;100855.47;;;-1.54;89.22
73267;BME280;61495;53.400;7.608;2022-12-10T02:54:49;100860.72;;;-1.54;89.29
73267;BME280;61495;53.400;7.608;2022-12-10T03:02:46;100861.56;;;-1.53;89.38
73267;BME280;61495;53.400;7.608;2022-12-10T03:07:55;100863.50;;;-1.55;89.18
73267;BME280;61495;53.400;7.608;2022-12-10T03:13:02;100860.44;;;-1.60;89.13
73267;BME280;61495;53.400;7.608;2022-12-10T03:15:33;100869.00;;;-1.58;89.46
73267;BME280;61495;53.400;7.608;2022-12-10T03:18:02;100867.34;;;-1.59;89.12
73267;BME280;61495;53.400;7.608;2022-12-10T03:20:31;100860.44;;;-1.60;89.23
73267;BME280;61495;53.400;7.608;2022-12-10T03:22:57;100855.19;;;-1.60;89.09
73267;BME280;61495;53.400;7.608;2022-12-10T03:25:24;100858.88;;;-1.63;89.09
73267;BME280;61495;53.400;7.608;2022-12-10T03:27:54;100852.09;;;-1.65;89.01
73267;BME280;61495;53.400;7.608;2022-12-10T03:30:20;100853.78;;;-1.64;89.20
73267;BME280;61495;53.400;7.608;2022-12-10T03:32:46;100854.03;;;-1.67;89.55
73267;BME280;61495;53.400;7.608;2022-12-10T03:35:11;100856.66;;;-1.67;89.24
73267;BME280;61495;53.400;7.608;2022-12-10T03:37:38;100859.28;;;-1.67;89.40
73267;BME280;61495;53.400;7.608;2022-12-10T03:40:05;100864.53;;;-1.67;89.49
73267;BME280;61495;53.400;7.608;2022-12-10T03:42:31;100864.38;;;-1.66;89.32
73267;BME280;61495;53.400;7.608;2022-12-10T03:44:57;100863.56;;;-1.66;89.18
73267;BME280;61495;53.400;7.608;2022-12-10T03:47:23;100862.00;;;-1.69;89.16
73267;BME280;61495;53.400;7.608;2022-12-10T03:49:48;100854.03;;;-1.67;89.37
73267;BME280;61495;53.400;7.608;2022-12-10T03:52:14;100863.09;;;-1.72;89.26
73267;BME280;61495;53.400;7.608;2022-12-10T03:54:40;100853.34;;;-1.70;89.36
73267;BME280;61495;53.400;7.608;2022-12-10T03:57:05;100851.50;;;-1.69;89.37
73267;BME280;61495;53.400;7.608;2022-12-10T03:59:31;100848.19;;;-1.71;89.26
73267;BME280;61495;53.400;7.608;2022-12-10T04:01:56;100855.38;;;-1.73;89.11
73267;BME280;61495;53.400;7.608;2022-12-10T04:04:21;100861.72;;;-1.76;89.36
73267;BME280;61495;53.400;7.608;2022-12-10T04:06:47;100856.22;;;-1.73;89.58
73267;BME280;61495;53.400;7.608;2022-12-10T04:09:14;100854.28;;;-1.71;89.66
73267;BME280;61495;53.400;7.608;2022-12-10T04:11:39;100859.38;;;-1.69;89.42
73267;BME280;61495;53.400;7.608;2022-12-10T04:14:05;100869.34;;;-1.73;89.36
73267;BME280;61495;53.400;7.608;2022-12-10T04:16:49;100865.03;;;-1.74;89.53
73267;BME280;61495;53.400;7.608;2022-12-10T04:19:16;100859.78;;;-1.74;89.30
73267;BME280;61495;53.400;7.608;2022-12-10T04:21:44;100857.00;;;-1.72;89.56
73267;BME280;61495;53.400;7.608;2022-12-10T04:24:30;100871.97;;;-1.73;89.67
73267;BME280;61495;53.400;7.608;2022-12-10T04:27:20;100869.69;;;-1.77;89.48
73267;BME280;61495;53.400;7.608;2022-12-10T04:29:46;100868.88;;;-1.78;89.58
73267;BME280;61495;53.400;7.608;2022-12-10T04:32:12;100863.50;;;-1.76;89.81
73267;BME280;61495;53.400;7.608;2022-12-10T04:34:37;100872.47;;;-1.79;89.27
73267;BME280;61495;53.400;7.608;2022-12-10T04:37:03;100863.63;;;-1.78;89.84
73267;BME280;61495;53.400;7.608;2022-12-10T04:39:29;100862.22;;;-1.82;89.30
73267;BME280;61495;53.400;7.608;2022-12-10T04:41:54;100869.84;;;-1.79;89.71
73267;BME280;61495;53.400;7.608;2022-12-10T04:44:20;100875.78;;;-1.77;89.80
73267;BME280;61495;53.400;7.608;2022-12-10T04:46:45;100876.50;;;-1.75;89.74
73267;BME280;61495;53.400;7.608;2022-12-10T04:49:12;100876.88;;;-1.79;89.59
73267;BME280;61495;53.400;7.608;2022-12-10T04:51:37;100887.25;;;-1.78;89.55
73267;BME280;61495;53.400;7.608;2022-12-10T04:54:03;100882.97;;;-1.79;89.80
73267;BME280;61495;53.400;7.608;2022-12-10T04:56:29;100879.75;;;-1.82;89.33
73267;BME280;61495;53.400;7.608;2022-12-10T04:58:55;100885.00;;;-1.82;89.61
73267;BME280;61495;53.400;7.608;2022-12-10T05:01:21;100888.22;;;-1.79;90.04
73267;BME280;61495;53.400;7.608;2022-12-10T05:03:47;100892.63;;;-1.79;89.61
73267;BME280;61495;53.400;7.608;2022-12-10T05:06:15;100887.38;;;-1.79;90.01
73267;BME280;61495;53.400;7.608;2022-12-10T05:08:41;100887.50;;;-1.81;89.73
73267;BME280;61495;53.400;7.608;2022-12-10T05:11:11;100885.72;;;-1.80;89.53
73267;BME280;61495;53.400;7.608;2022-12-10T05:13:38;100882.81;;;-1.77;90.09
73267;BME280;61495;53.400;7.608;2022-12-10T05:16:05;100880.22;;;-1.77;89.78
73267;BME280;61495;53.400;7.608;2022-12-10T05:18:31;100886.28;;;-1.77;89.85
73267;BME280;61495;53.400;7.608;2022-12-10T05:21:00;100883.66;;;-1.77;89.84
73267;BME280;61495;53.400;7.608;2022-12-10T05:23:26;100882.00;;;-1.78;89.89
73267;BME280;61495;53.400;7.608;2022-12-10T05:26:05;100876.03;;;-1.80;89.93
73267;BME280;61495;53.400;7.608;2022-12-10T05:28:33;100884.63;;;-1.78;89.75
73267;BME280;61495;53.400;7.608;2022-12-10T05:30:58;100882.81;;;-1.77;90.36
73267;BME280;61495;53.400;7.608;2022-12-10T05:33:24;100884.88;;;-1.81;89.71
73267;BME280;61495;53.400;7.608;2022-12-10T05:36:02;100886.28;;;-1.77;89.83
73267;BME280;61495;53.400;7.608;2022-12-10T05:38:30;100891.53;;;-1.77;89.84
73267;BME280;61495;53.400;7.608;2022-12-10T05:41:11;100893.22;;;-1.76;89.97
73267;BME280;61495;53.400;7.608;2022-12-10T05:43:36;100886.03;;;-1.74;89.98
73267;BME280;61495;53.400;7.608;2022-12-10T05:46:04;100885.34;;;-1.76;89.53
73267;BME280;61495;53.400;7.608;2022-12-10T05:48:30;100888.66;;;-1.74;89.99
73267;BME280;61495;53.400;7.608;2022-12-10T05:50:56;100889.34;;;-1.72;89.98
73267;BME280;61495;53.400;7.608;2022-12-10T05:53:21;100884.25;;;-1.73;90.17
73267;BME280;61495;53.400;7.608;2022-12-10T05:55:46;100887.47;;;-1.70;90.14
73267;BME280;61495;53.400;7.608;2022-12-10T05:58:12;100893.53;;;-1.69;89.87
73267;BME280;61495;53.400;7.608;2022-12-10T06:00:40;100900.59;;;-1.70;89.93
73267;BME280;61495;53.400;7.608;2022-12-10T06:03:06;100902.97;;;-1.66;90.25
73267;BME280;61495;53.400;7.608;2022-12-10T06:05:37;100899.50;;;-1.67;90.29
73267;BME280;61495;53.400;7.608;2022-12-10T06:08:03;100899.34;;;-1.65;90.51
73267;BME280;61495;53.400;7.608;2022-12-10T06:10:28;100901.88;;;-1.64;90.11
73267;BME280;61495;53.400;7.608;2022-12-10T06:12:53;100911.28;;;-1.61;90.24
73267;BME280;61495;53.400;7.608;2022-12-10T06:15:19;100905.88;;;-1.60;90.34
73267;BME280;61495;53.400;7.608;2022-12-10T06:17:44;100902.47;;;-1.60;90.37
73267;BME280;61495;53.400;7.608;2022-12-10T06:20:10;100899.09;;;-1.62;90.03
73267;BME280;61495;53.400;7.608;2022-12-10T06:22:35;100903.16;;;-1.58;90.55
73267;BME280;61495;53.400;7.608;2022-12-10T06:25:01;100909.94;;;-1.56;90.34
73267;BME280;61495;53.400;7.608;2022-12-10T06:27:26;100914.09;;;-1.53;90.30
73267;BME280;61495;53.400;7.608;2022-12-10T06:29:51;100916.03;;;-1.55;90.20
73267;BME280;61495;53.400;7.608;2022-12-10T06:32:16;100914.09;;;-1.53;90.25
73267;BME280;61495;53.400;7.608;2022-12-10T06:34:42;100923.06;;;-1.56;90.46
73267;BME280;61495;53.400;7.608;2022-12-10T06:37:07;100918.91;;;-1.58;90.30
73267;BME280;61495;53.400;7.608;2022-12-10T06:39:32;100924.16;;;-1.58;90.30
73267;BME280;61495;53.400;7.608;2022-12-10T06:41:58;100928.19;;;-1.54;90.34
73267;BME280;61495;53.400;7.608;2022-12-10T06:44:23;100935.94;;;-1.53;90.24
73267;BME280;61495;53.400;7.608;2022-12-10T06:46:48;100938.44;;;-1.51;90.38
73267;BME280;61495;53.400;7.608;2022-12-10T06:49:13;100940.09;;;-1.50;90.10
73267;BME280;61495;53.400;7.608;2022-12-10T06:51:39;100939.84;;;-1.47;90.47
73267;BME280;61495;53.400;7.608;2022-12-10T06:54:04;100946.78;;;-1.46;90.08
73267;BME280;61495;53.400;7.608;2022-12-10T06:56:30;100942.22;;;-1.44;90.18
73267;BME280;61495;53.400;7.608;2022-12-10T06:58:55;100938.75;;;-1.45;90.52
73267;BME280;61495;53.400;7.608;2022-12-10T07:01:21;100945.28;;;-1.39;90.33
73267;BME280;61495;53.400;7.608;2022-12-10T07:03:52;100944.59;;;-1.41;90.13
73267;BME280;61495;53.400;7.608;2022-12-10T07:06:19;100949.50;;;-1.37;90.23
73267;BME280;61495;53.400;7.608;2022-12-10T07:08:45;100950.28;;;-1.36;90.43
73267;BME280;61495;53.400;7.608;2022-12-10T07:11:13;100950.19;;;-1.35;90.24
73267;BME280;61495;53.400;7.608;2022-12-10T07:13:39;100951.03;;;-1.34;90.05
73267;BME280;61495;53.400;7.608;2022-12-10T07:16:31;100959.59;;;-1.32;90.31
73267;BME280;61495;53.400;7.608;2022-12-10T07:18:59;100961.28;;;-1.31;90.25
73267;BME280;61495;53.400;7.608;2022-12-10T07:21:27;100961.03;;;-1.28;90.28
73267;BME280;61495;53.400;7.608;2022-12-10T07:23:54;100967.38;;;-1.31;90.25
73267;BME280;61495;53.400;7.608;2022-12-10T07:26:23;100969.84;;;-1.29;90.21
73267;BME280;61495;53.400;7.608;2022-12-10T07:28:49;100961.72;;;-1.26;90.40
73267;BME280;61495;53.400;7.608;2022-12-10T07:31:14;100964.34;;;-1.26;90.49
73267;BME280;61495;53.400;7.608;2022-12-10T07:33:40;100972.94;;;-1.24;90.21
73267;BME280;61495;53.400;7.608;2022-12-10T07:36:05;100969.34;;;-1.23;90.25
73267;BME280;61495;53.400;7.608;2022-12-10T07:38:31;100976.28;;;-1.22;90.46
73267;BME280;61495;53.400;7.608;2022-12-10T07:40:56;100974.34;;;-1.20;90.47
73267;BME280;61495;53.400;7.608;2022-12-10T07:43:22;100971.56;;;-1.19;90.13
73267;BME280;61495;53.400;7.608;2022-12-10T07:45:47;100974.78;;;-1.15;89.99
73267;BME280;61495;53.400;7.608;2022-12-10T07:48:12;100972.16;;;-1.15;90.20
73267;BME280;61495;53.400;7.608;2022-12-10T07:50:39;100968.00;;;-1.18;90.35
73267;BME280;61495;53.400;7.608;2022-12-10T07:53:04;100961.66;;;-1.15;90.08
73267;BME280;61495;53.400;7.608;2022-12-10T07:55:30;100970.50;;;-1.16;90.18
73267;BME280;61495;53.400;7.608;2022-12-10T07:57:55;100975.50;;;-1.13;90.25
73267;BME280;61495;53.400;7.608;2022-12-10T08:00:20;100977.16;;;-1.12;90.00
73267;BME280;61495;53.400;7.608;2022-12-10T08:02:46;100971.91;;;-1.12;89.91
73267;BME280;61495;53.400;7.608;2022-12-10T08:05:11;100973.56;;;-1.11;89.99
73267;BME280;61495;53.400;7.608;2022-12-10T08:07:36;100975.50;;;-1.13;90.03
73267;BME280;61495;53.400;7.608;2022-12-10T08:10:02;100978.00;;;-1.12;89.93
73267;BME280;61495;53.400;7.608;2022-12-10T08:12:28;100978.94;;;-1.13;90.08
73267;BME280;61495;53.400;7.608;2022-12-10T08:14:53;100978.00;;;-1.12;89.88
73267;BME280;61495;53.400;7.608;2022-12-10T08:17:18;100986.03;;;-1.13;90.24
73267;BME280;61495;53.400;7.608;2022-12-10T08:19:43;100984.34;;;-1.14;90.09
73267;BME280;61495;53.400;7.608;2022-12-10T08:22:09;100984.34;;;-1.14;90.03
73267;BME280;61495;53.400;7.608;2022-12-10T08:24:34;100990.31;;;-1.12;90.20
73267;BME280;61495;53.400;7.608;2022-12-10T08:26:59;100994.59;;;-1.11;89.89
73267;BME280;61495;53.400;7.608;2022-12-10T08:29:25;100991.97;;;-1.11;90.04
73267;BME280;61495;53.400;7.608;2022-12-10T08:31:50;100988.50;;;-1.12;89.85
73267;BME280;61495;53.400;7.608;2022-12-10T08:34:17;100991.03;;;-1.10;90.16
73267;BME280;61495;53.400;7.608;2022-12-10T08:36:44;100992.66;;;-1.09;90.27
73267;BME280;61495;53.400;7.608;2022-12-10T08:39:10;100993.41;;;-1.07;90.36
73267;BME280;61495;53.400;7.608;2022-12-10T08:41:40;100988.94;;;-1.06;90.39
73267;BME280;61495;53.400;7.608;2022-12-10T08:44:06;100987.88;;;-1.04;90.28
73267;BME280;61495;53.400;7.608;2022-12-10T08:46:31;100987.75;;;-1.02;90.08
73267;BME280;61495;53.400;7.608;2022-12-10T08:48:56;100992.84;;;-1.01;90.13
73267;BME280;61495;53.400;7.608;2022-12-10T08:51:21;100985.69;;;-0.99;90.33
73267;BME280;61495;53.400;7.608;2022-12-10T08:53:47;100997.59;;;-0.95;90.00
73267;BME280;61495;53.400;7.608;2022-12-10T08:56:13;100998.31;;;-0.93;89.90
73267;BME280;61495;53.400;7.608;2022-12-10T08:58:38;100999.84;;;-0.90;90.18
73267;BME280;61495;53.400;7.608;2022-12-10T09:01:09;100995.44;;;-0.90;90.01
73267;BME280;61495;53.400;7.608;2022-12-10T09:03:35;101003.75;;;-0.85;89.94
73267;BME280;61495;53.400;7.608;2022-12-10T09:06:06;101008.91;;;-0.83;89.84
73267;BME280;61495;53.400;7.608;2022-12-10T09:08:31;101012.34;;;-0.83;89.77
73267;BME280;61495;53.400;7.608;2022-12-10T09:10:57;101013.91;;;-0.80;90.15
73267;BME280;61495;53.400;7.608;2022-12-10T09:13:23;101020.69;;;-0.78;89.68
73267;BME280;61495;53.400;7.608;2022-12-10T09:15:49;101018.88;;;-0.77;89.90
73267;BME280;61495;53.400;7.608;2022-12-10T09:18:14;101027.50;;;-0.75;89.90
73267;BME280;61495;53.400;7.608;2022-12-10T09:20:39;101033.59;;;-0.75;89.75
73267;BME280;61495;53.400;7.608;2022-12-10T09:23:05;101025.81;;;-0.76;89.72
73267;BME280;61495;53.400;7.608;2022-12-10T09:25:30;101035.22;;;-0.74;89.89
73267;BME280;61495;53.400;7.608;2022-12-10T09:27:55;101031.66;;;-0.73;89.78
73267;BME280;61495;53.400;7.608;2022-12-10T09:30:20;101037.88;;;-0.74;89.81
73267;BME280;61495;53.400;7.608;2022-12-10T09:32:46;101036.91;;;-0.73;89.65
73267;BME280;61495;53.400;7.608;2022-12-10T09:35:11;101038.59;;;-0.72;89.85
73267;BME280;61495;53.400;7.608;2022-12-10T09:37:37;101031.50;;;-0.71;89.79
73267;BME280;61495;53.400;7.608;2022-12-10T09:40:02;101029.59;;;-0.69;89.88
73267;BME280;61495;53.400;7.608;2022-12-10T09:42:42;101031.13;;;-0.67;89.72
73267;BME280;61495;53.400;7.608;2022-12-10T09:48:03;101030.63;;;-0.61;89.64
73267;BME280;61495;53.400;7.608;2022-12-10T09:50:41;101035.47;;;-0.56;89.83
73267;BME280;61495;53.400;7.608;2022-12-10T09:53:13;101027.31;;;-0.53;89.76
73267;BME280;61495;53.400;7.608;2022-12-10T09:55:44;101036.47;;;-0.47;89.95
73267;BME280;61495;53.400;7.608;2022-12-10T09:58:18;101038.59;;;-0.41;89.78
73267;BME280;61495;53.400;7.608;2022-12-10T10:00:47;101032.09;;;-0.37;89.60
73267;BME280;61495;53.400;7.608;2022-12-10T10:03:16;101031.59;;;-0.31;90.06
73267;BME280;61495;53.400;7.608;2022-12-10T10:05:42;101034.38;;;-0.23;90.37
73267;BME280;61495;53.400;7.608;2022-12-10T10:08:17;101030.25;;;-0.16;90.46
73267;BME280;61495;53.400;7.608;2022-12-10T10:10:46;101025.16;;;-0.08;90.43
73267;BME280;61495;53.400;7.608;2022-12-10T10:13:15;101039.56;;;-0.03;90.75
73267;BME280;61495;53.400;7.608;2022-12-10T10:15:44;101040.56;;;0.06;91.04
73267;BME280;61495;53.400;7.608;2022-12-10T10:20:38;101045.47;;;0.20;91.41
73267;BME280;61495;53.400;7.608;2022-12-10T10:23:04;101050.88;;;0.28;91.37
73267;BME280;61495;53.400;7.608;2022-12-10T10:25:29;101050.09;;;0.37;90.89
73267;BME280;61495;53.400;7.608;2022-12-10T10:27:55;101044.94;;;0.45;90.42
73267;BME280;61495;53.400;7.608;2022-12-10T10:30:21;101050.38;;;0.53;90.42
73267;BME280;61495;53.400;7.608;2022-12-10T10:32:54;101055.09;;;0.60;90.43
73267;BME280;61495;53.400;7.608;2022-12-10T10:35:33;101054.69;;;0.64;90.14
73267;BME280;61495;53.400;7.608;2022-12-10T10:38:06;101045.41;;;0.70;90.32
73267;BME280;61495;53.400;7.608;2022-12-10T10:40:46;101044.84;;;0.76;89.89
73267;BME280;61495;53.400;7.608;2022-12-10T10:46:11;101050.13;;;0.85;89.47
73267;BME280;61495;53.400;7.608;2022-12-10T10:48:38;101049.84;;;0.88;89.99
73267;BME280;61495;53.400;7.608;2022-12-10T10:56:09;101062.03;;;0.99;88.92
73267;BME280;61495;53.400;7.608;2022-12-10T10:58:36;101057.47;;;1.01;89.10
73267;BME280;61495;53.400;7.608;2022-12-10T11:01:06;101063.28;;;1.04;89.61
73267;BME280;61495;53.400;7.608;2022-12-10T11:03:35;101064.81;;;1.07;89.00
73267;BME280;61495;53.400;7.608;2022-12-10T11:06:05;101061.47;;;1.05;88.63
73267;BME280;61495;53.400;7.608;2022-12-10T11:08:32;101057.59;;;1.09;89.14
73267;BME280;61495;53.400;7.608;2022-12-10T11:11:02;101049.53;;;1.10;88.60
73267;BME280;61495;53.400;7.608;2022-12-10T11:13:34;101057.31;;;1.12;89.12
73267;BME280;61495;53.400;7.608;2022-12-10T11:18:38;101044.81;;;1.14;88.71
73267;BME280;61495;53.400;7.608;2022-12-10T11:21:19;101048.13;;;1.16;88.22
73267;BME280;61495;53.400;7.608;2022-12-10T11:23:48;101048.13;;;1.16;88.41
73267;BME280;61495;53.400;7.608;2022-12-10T11:26:57;101040.09;;;1.18;88.35
73267;BME280;61495;53.400;7.608;2022-12-10T11:32:50;101042.56;;;1.19;88.04
73267;BME280;61495;53.400;7.608;2022-12-10T11:38:10;101027.31;;;1.23;87.97
73267;BME280;61495;53.400;7.608;2022-12-10T11:55:32;101031.88;;;1.30;87.44
73267;BME280;61495;53.400;7.608;2022-12-10T12:00:19;101034.25;;;1.33;87.39
73267;BME280;61495;53.400;7.608;2022-12-10T12:02:56;101032.28;;;1.35;87.78
73267;BME280;61495;53.400;7.608;2022-12-10T12:06:08;101024.34;;;1.35;87.17
73267;BME280;61495;53.400;7.608;2022-12-10T12:11:25;101018.78;;;1.38;87.80
73267;BME280;61495;53.400;7.608;2022-12-10T12:14:08;101022.28;;;1.39;87.12
73267;BME280;61495;53.400;7.608;2022-12-10T12:16:54;101029.19;;;1.40;87.31
73267;BME280;61495;53.400;7.608;2022-12-10T12:19:37;101019.47;;;1.40;87.49
73267;BME280;61495;53.400;7.608;2022-12-10T12:25:01;101017.53;;;1.42;87.81
73267;BME280;61495;53.400;7.608;2022-12-10T12:30:21;101020.19;;;1.42;87.23
73267;BME280;61495;53.400;7.608;2022-12-10T12:33:11;101018.50;;;1.41;87.01
73267;BME280;61495;53.400;7.608;2022-12-10T12:35:45;101018.63;;;1.40;86.86
73267;BME280;61495;53.400;7.608;2022-12-10T12:38:27;101020.31;;;1.41;86.54
73267;BME280;61495;53.400;7.608;2022-12-10T12:46:20;101020.88;;;1.44;87.09
73267;BME280;61495;53.400;7.608;2022-12-10T12:49:20;101026.81;;;1.46;87.05
73267;BME280;61495;53.400;7.608;2022-12-10T12:51:52;101024.19;;;1.46;87.20
73267;BME280;61495;53.400;7.608;2022-12-10T12:54:19;101020.56;;;1.47;87.15
73267;BME280;61495;53.400;7.608;2022-12-10T13:05:35;101027.53;;;1.48;87.27
73267;BME280;61495;53.400;7.608;2022-12-10T13:08:25;101030.16;;;1.48;87.05
73267;BME280;61495;53.400;7.608;2022-12-10T13:13:41;101031.97;;;1.48;86.61
73267;BME280;61495;53.400;7.608;2022-12-10T13:29:57;101040.44;;;1.51;87.08
73267;BME280;61495;53.400;7.608;2022-12-10T13:43:19;101046.81;;;1.49;87.03
73267;BME280;61495;53.400;7.608;2022-12-10T13:46:22;101050.28;;;1.49;87.54
73267;BME280;61495;53.400;7.608;2022-12-10T13:48:50;101055.56;;;1.49;86.79
73267;BME280;61495;53.400;7.608;2022-12-10T13:51:42;101058.38;;;1.48;86.81
73267;BME280;61495;53.400;7.608;2022-12-10T13:54:44;101063.66;;;1.48;87.00
73267;BME280;61495;53.400;7.608;2022-12-10T14:08:31;101059.22;;;1.39;86.77
73267;BME280;61495;53.400;7.608;2022-12-10T14:10:58;101064.63;;;1.37;86.85
73267;BME280;61495;53.400;7.608;2022-12-10T14:13:38;101064.63;;;1.37;87.33
73267;BME280;61495;53.400;7.608;2022-12-10T14:16:05;101067.25;;;1.37;87.13
73267;BME280;61495;53.400;7.608;2022-12-10T14:18:35;101067.25;;;1.37;87.27
73267;BME280;61495;53.400;7.608;2022-12-10T14:21:05;101072.53;;;1.37;87.22
73267;BME280;61495;53.400;7.608;2022-12-10T14:23:32;101078.09;;;1.34;86.87
73267;BME280;61495;53.400;7.608;2022-12-10T14:26:03;101092.28;;;1.33;87.55
73267;BME280;61495;53.400;7.608;2022-12-10T14:28:29;101096.56;;;1.34;87.36
73267;BME280;61495;53.400;7.608;2022-12-10T14:30:55;101095.91;;;1.32;87.19
73267;BME280;61495;53.400;7.608;2022-12-10T14:33:22;101098.66;;;1.31;87.29
73267;BME280;61495;53.400;7.608;2022-12-10T14:35:50;101094.50;;;1.28;87.45
73267;BME280;61495;53.400;7.608;2022-12-10T14:38:20;101092.69;;;1.29;87.30
73267;BME280;61495;53.400;7.608;2022-12-10T14:40:46;101097.13;;;1.28;87.44
73267;BME280;61495;53.400;7.608;2022-12-10T14:43:18;101094.50;;;1.28;87.55
73267;BME280;61495;53.400;7.608;2022-12-10T14:45:51;101098.13;;;1.27;87.70
73267;BME280;61495;53.400;7.608;2022-12-10T14:48:19;101095.63;;;1.26;87.87
73267;BME280;61495;53.400;7.608;2022-12-10T14:50:46;101102.56;;;1.27;87.95
73267;BME280;61495;53.400;7.608;2022-12-10T14:53:17;101094.94;;;1.24;87.50
73267;BME280;61495;53.400;7.608;2022-12-10T14:55:49;101102.97;;;1.22;87.51
73267;BME280;61495;53.400;7.608;2022-12-10T14:58:46;101103.97;;;1.21;87.51
73267;BME280;61495;53.400;7.608;2022-12-10T15:01:17;101108.41;;;1.21;88.15
73267;BME280;61495;53.400;7.608;2022-12-10T15:03:46;101108.41;;;1.21;88.10